Terminal Aerodrome Forecast
Issued by NWS Nashville, TN

Home | Current Version | Previous Version | Text Only | Print | Product List | Glossary On
Versions: 1 2 3 4 5 6 7 8 9 10 11 12
000
FTUS44 KOHX 252300
TAFBNA
TAF
KBNA 252331Z 2600/2624 30005KT P6SM SKC
     FM260400 VRB02KT 5SM BR SCT010
      TEMPO 2609/2613 00000KT 2SM BR BKN008
     FM261500 00000KT P6SM SCT030
     FM261800 VRB03KT P6SM SKC=

USA.gov is the U.S. government's official web portal to all federal, state and local government web resources and services.